sensor_id;sensor_type;location;lat;lon;timestamp;noise_LAeq;noise_LA_min;noise_LA_max;noise_LA01;noise_LA95
77133;Laerm;26708;50.304;19.028;2023-03-23T00:00:28;40.65;37.48;47.65;;
77133;Laerm;26708;50.304;19.028;2023-03-23T00:02:34;39.61;37.56;41.97;;
77133;Laerm;26708;50.304;19.028;2023-03-23T00:04:39;41.10;37.73;50.64;;
77133;Laerm;26708;50.304;19.028;2023-03-23T00:06:47;41.01;37.66;45.60;;
77133;Laerm;26708;50.304;19.028;2023-03-23T00:08:55;39.73;37.40;44.39;;
77133;Laerm;26708;50.304;19.028;2023-03-23T00:11:00;39.79;37.50;45.87;;
77133;Laerm;26708;50.304;19.028;2023-03-23T00:13:05;39.62;37.22;43.40;;
77133;Laerm;26708;50.304;19.028;2023-03-23T00:15:10;44.32;37.58;62.96;;
77133;Laerm;26708;50.304;19.028;2023-03-23T00:17:17;39.73;37.72;43.68;;
77133;Laerm;26708;50.304;19.028;2023-03-23T00:19:24;40.25;37.89;49.70;;
77133;Laerm;26708;50.304;19.028;2023-03-23T00:21:33;40.23;37.63;45.88;;
77133;Laerm;26708;50.304;19.028;2023-03-23T00:23:40;39.84;37.65;42.83;;
77133;Laerm;26708;50.304;19.028;2023-03-23T00:25:48;40.13;37.75;45.46;;
77133;Laerm;26708;50.304;19.028;2023-03-23T00:27:55;39.67;37.51;43.57;;
77133;Laerm;26708;50.304;19.028;2023-03-23T00:30:00;39.89;37.37;43.20;;
77133;Laerm;26708;50.304;19.028;2023-03-23T00:32:05;54.44;38.23;70.49;;
77133;Laerm;26708;50.304;19.028;2023-03-23T00:34:17;42.00;37.67;54.18;;
77133;Laerm;26708;50.304;19.028;2023-03-23T00:36:29;40.10;37.93;44.24;;
77133;Laerm;26708;50.304;19.028;2023-03-23T00:38:50;41.25;38.20;48.99;;
77133;Laerm;26708;50.304;19.028;2023-03-23T00:40:56;40.48;37.94;44.63;;
77133;Laerm;26708;50.304;19.028;2023-03-23T00:43:04;40.33;37.50;46.70;;
77133;Laerm;26708;50.304;19.028;2023-03-23T00:45:10;39.97;37.22;44.25;;
77133;Laerm;26708;50.304;19.028;2023-03-23T00:47:15;40.06;37.98;47.84;;
77133;Laerm;26708;50.304;19.028;2023-03-23T00:49:23;41.15;37.71;51.84;;
77133;Laerm;26708;50.304;19.028;2023-03-23T00:51:29;39.72;37.16;44.65;;
77133;Laerm;26708;50.304;19.028;2023-03-23T00:53:34;39.70;37.05;43.50;;
77133;Laerm;26708;50.304;19.028;2023-03-23T00:55:43;39.74;37.37;43.98;;
77133;Laerm;26708;50.304;19.028;2023-03-23T00:57:55;43.66;37.63;51.01;;
77133;Laerm;26708;50.304;19.028;2023-03-23T01:00:27;43.76;38.85;49.74;;
77133;Laerm;26708;50.304;19.028;2023-03-23T01:02:32;42.73;39.07;49.57;;
77133;Laerm;26708;50.304;19.028;2023-03-23T01:04:39;39.91;37.43;45.49;;
77133;Laerm;26708;50.304;19.028;2023-03-23T01:06:50;39.56;36.98;41.96;;
77133;Laerm;26708;50.304;19.028;2023-03-23T01:08:55;49.10;37.61;62.05;;
77133;Laerm;26708;50.304;19.028;2023-03-23T01:11:07;40.89;38.11;46.73;;
77133;Laerm;26708;50.304;19.028;2023-03-23T01:13:13;40.41;37.55;46.81;;
77133;Laerm;26708;50.304;19.028;2023-03-23T01:15:19;39.72;37.56;42.64;;
77133;Laerm;26708;50.304;19.028;2023-03-23T01:17:24;51.84;37.85;71.21;;
77133;Laerm;26708;50.304;19.028;2023-03-23T01:19:29;40.16;37.57;47.30;;
77133;Laerm;26708;50.304;19.028;2023-03-23T01:21:35;40.07;37.66;45.79;;
77133;Laerm;26708;50.304;19.028;2023-03-23T01:23:40;39.97;37.50;45.14;;
77133;Laerm;26708;50.304;19.028;2023-03-23T01:25:45;49.48;38.47;61.43;;
77133;Laerm;26708;50.304;19.028;2023-03-23T01:27:53;43.76;37.93;56.09;;
77133;Laerm;26708;50.304;19.028;2023-03-23T01:29:58;39.93;37.27;44.05;;
77133;Laerm;26708;50.304;19.028;2023-03-23T01:32:03;54.69;38.22;73.83;;
77133;Laerm;26708;50.304;19.028;2023-03-23T01:34:08;41.38;37.73;50.34;;
77133;Laerm;26708;50.304;19.028;2023-03-23T01:36:18;39.65;37.23;45.09;;
77133;Laerm;26708;50.304;19.028;2023-03-23T01:38:24;42.53;37.64;56.10;;
77133;Laerm;26708;50.304;19.028;2023-03-23T01:40:29;42.50;37.85;51.75;;
77133;Laerm;26708;50.304;19.028;2023-03-23T01:42:37;40.40;37.60;48.09;;
77133;Laerm;26708;50.304;19.028;2023-03-23T01:45:31;40.25;37.80;45.42;;
77133;Laerm;26708;50.304;19.028;2023-03-23T01:47:36;41.02;38.33;45.92;;
77133;Laerm;26708;50.304;19.028;2023-03-23T01:49:46;41.08;37.76;48.07;;
77133;Laerm;26708;50.304;19.028;2023-03-23T01:52:00;40.88;37.95;46.67;;
77133;Laerm;26708;50.304;19.028;2023-03-23T01:54:12;41.59;38.31;61.08;;
77133;Laerm;26708;50.304;19.028;2023-03-23T01:56:30;41.71;37.95;57.13;;
77133;Laerm;26708;50.304;19.028;2023-03-23T01:58:41;51.05;38.44;63.72;;
77133;Laerm;26708;50.304;19.028;2023-03-23T02:00:49;45.21;40.76;49.62;;
77133;Laerm;26708;50.304;19.028;2023-03-23T02:02:56;42.34;39.05;48.35;;
77133;Laerm;26708;50.304;19.028;2023-03-23T02:05:11;41.69;37.27;50.17;;
77133;Laerm;26708;50.304;19.028;2023-03-23T02:07:21;40.96;37.06;48.61;;
77133;Laerm;26708;50.304;19.028;2023-03-23T02:09:28;42.38;38.00;49.76;;
77133;Laerm;26708;50.304;19.028;2023-03-23T02:11:33;50.39;37.56;67.98;;
77133;Laerm;26708;50.304;19.028;2023-03-23T02:13:39;41.87;38.22;55.07;;
77133;Laerm;26708;50.304;19.028;2023-03-23T02:16:02;41.32;37.43;59.44;;
77133;Laerm;26708;50.304;19.028;2023-03-23T02:18:27;40.54;37.80;44.44;;
77133;Laerm;26708;50.304;19.028;2023-03-23T02:24:05;39.72;37.50;45.62;;
77133;Laerm;26708;50.304;19.028;2023-03-23T02:26:38;41.33;37.34;51.15;;
77133;Laerm;26708;50.304;19.028;2023-03-23T02:29:11;41.82;38.17;50.90;;
77133;Laerm;26708;50.304;19.028;2023-03-23T02:31:45;41.02;38.31;50.04;;
77133;Laerm;26708;50.304;19.028;2023-03-23T02:33:59;41.06;38.26;46.72;;
77133;Laerm;26708;50.304;19.028;2023-03-23T02:36:19;48.21;38.20;58.88;;
77133;Laerm;26708;50.304;19.028;2023-03-23T02:38:34;43.33;37.65;57.24;;
77133;Laerm;26708;50.304;19.028;2023-03-23T02:40:45;40.22;37.56;44.61;;
77133;Laerm;26708;50.304;19.028;2023-03-23T02:42:57;40.62;37.69;44.92;;
77133;Laerm;26708;50.304;19.028;2023-03-23T02:45:10;41.24;38.19;48.53;;
77133;Laerm;26708;50.304;19.028;2023-03-23T02:47:23;41.96;38.50;49.72;;
77133;Laerm;26708;50.304;19.028;2023-03-23T02:49:36;47.08;38.14;63.69;;
77133;Laerm;26708;50.304;19.028;2023-03-23T02:51:46;41.35;38.56;51.28;;
77133;Laerm;26708;50.304;19.028;2023-03-23T02:53:56;41.39;37.93;48.48;;
77133;Laerm;26708;50.304;19.028;2023-03-23T02:56:06;41.12;38.02;48.15;;
77133;Laerm;26708;50.304;19.028;2023-03-23T02:58:13;49.66;38.32;66.82;;
77133;Laerm;26708;50.304;19.028;2023-03-23T03:00:20;41.17;37.95;49.51;;
77133;Laerm;26708;50.304;19.028;2023-03-23T03:02:32;41.79;38.45;49.22;;
77133;Laerm;26708;50.304;19.028;2023-03-23T03:04:47;41.65;38.71;50.78;;
77133;Laerm;26708;50.304;19.028;2023-03-23T03:07:22;41.16;38.02;46.13;;
77133;Laerm;26708;50.304;19.028;2023-03-23T03:09:42;41.35;37.91;48.93;;
77133;Laerm;26708;50.304;19.028;2023-03-23T03:11:58;53.16;38.65;74.94;;
77133;Laerm;26708;50.304;19.028;2023-03-23T03:14:18;46.70;38.69;58.05;;
77133;Laerm;26708;50.304;19.028;2023-03-23T03:16:33;52.35;39.61;68.89;;
77133;Laerm;26708;50.304;19.028;2023-03-23T03:18:50;41.33;38.96;46.28;;
77133;Laerm;26708;50.304;19.028;2023-03-23T03:21:08;42.15;38.94;50.43;;
77133;Laerm;26708;50.304;19.028;2023-03-23T03:23:19;43.78;39.03;54.30;;
77133;Laerm;26708;50.304;19.028;2023-03-23T03:25:27;42.09;38.69;51.65;;
77133;Laerm;26708;50.304;19.028;2023-03-23T03:27:33;42.20;38.65;52.12;;
77133;Laerm;26708;50.304;19.028;2023-03-23T03:29:53;42.45;38.41;52.48;;
77133;Laerm;26708;50.304;19.028;2023-03-23T03:32:02;42.85;38.35;54.06;;
77133;Laerm;26708;50.304;19.028;2023-03-23T03:34:10;42.55;38.55;55.58;;
77133;Laerm;26708;50.304;19.028;2023-03-23T03:36:29;43.05;38.70;54.81;;
77133;Laerm;26708;50.304;19.028;2023-03-23T03:38:44;43.97;39.55;55.12;;
77133;Laerm;26708;50.304;19.028;2023-03-23T03:40:52;45.95;40.18;55.60;;
77133;Laerm;26708;50.304;19.028;2023-03-23T03:42:59;44.46;39.33;56.45;;
77133;Laerm;26708;50.304;19.028;2023-03-23T03:45:05;53.90;39.12;73.29;;
77133;Laerm;26708;50.304;19.028;2023-03-23T03:47:11;46.08;39.90;54.23;;
77133;Laerm;26708;50.304;19.028;2023-03-23T03:49:16;42.98;39.88;52.49;;
77133;Laerm;26708;50.304;19.028;2023-03-23T03:51:24;43.21;39.39;51.18;;
77133;Laerm;26708;50.304;19.028;2023-03-23T03:53:31;44.34;40.06;50.81;;
77133;Laerm;26708;50.304;19.028;2023-03-23T03:55:35;45.56;39.96;54.51;;
77133;Laerm;26708;50.304;19.028;2023-03-23T03:57:45;51.33;40.29;66.86;;
77133;Laerm;26708;50.304;19.028;2023-03-23T04:00:19;44.84;39.96;52.33;;
77133;Laerm;26708;50.304;19.028;2023-03-23T04:02:24;45.04;40.24;52.66;;
77133;Laerm;26708;50.304;19.028;2023-03-23T04:04:30;42.79;38.93;48.61;;
77133;Laerm;26708;50.304;19.028;2023-03-23T04:06:39;43.98;39.53;53.34;;
77133;Laerm;26708;50.304;19.028;2023-03-23T04:08:44;46.94;40.24;61.89;;
77133;Laerm;26708;50.304;19.028;2023-03-23T04:10:49;44.16;39.87;50.47;;
77133;Laerm;26708;50.304;19.028;2023-03-23T04:12:56;44.76;40.21;61.14;;
77133;Laerm;26708;50.304;19.028;2023-03-23T04:15:20;45.98;40.13;64.36;;
77133;Laerm;26708;50.304;19.028;2023-03-23T04:17:26;51.14;40.16;66.40;;
77133;Laerm;26708;50.304;19.028;2023-03-23T04:19:31;46.91;40.16;59.32;;
77133;Laerm;26708;50.304;19.028;2023-03-23T04:21:40;52.19;40.89;62.72;;
77133;Laerm;26708;50.304;19.028;2023-03-23T04:23:44;50.74;41.84;68.54;;
77133;Laerm;26708;50.304;19.028;2023-03-23T04:25:52;46.01;40.67;56.38;;
77133;Laerm;26708;50.304;19.028;2023-03-23T04:28:01;46.42;41.41;62.68;;
77133;Laerm;26708;50.304;19.028;2023-03-23T04:30:13;45.97;41.57;64.70;;
77133;Laerm;26708;50.304;19.028;2023-03-23T04:32:26;48.47;42.36;63.93;;
77133;Laerm;26708;50.304;19.028;2023-03-23T04:34:32;51.82;42.54;62.04;;
77133;Laerm;26708;50.304;19.028;2023-03-23T04:36:39;46.83;41.65;56.50;;
77133;Laerm;26708;50.304;19.028;2023-03-23T04:38:51;49.25;41.37;57.61;;
77133;Laerm;26708;50.304;19.028;2023-03-23T04:40:57;57.35;46.06;77.56;;
77133;Laerm;26708;50.304;19.028;2023-03-23T04:43:23;59.16;42.00;77.52;;
77133;Laerm;26708;50.304;19.028;2023-03-23T04:45:54;51.42;42.06;65.90;;
77133;Laerm;26708;50.304;19.028;2023-03-23T04:48:02;48.74;42.37;62.40;;
77133;Laerm;26708;50.304;19.028;2023-03-23T04:50:16;45.61;40.50;54.19;;
77133;Laerm;26708;50.304;19.028;2023-03-23T04:52:25;53.66;41.08;68.35;;
77133;Laerm;26708;50.304;19.028;2023-03-23T04:54:32;50.97;42.30;65.23;;
77133;Laerm;26708;50.304;19.028;2023-03-23T04:56:40;51.95;41.61;67.05;;
77133;Laerm;26708;50.304;19.028;2023-03-23T04:58:49;51.40;42.11;67.30;;
77133;Laerm;26708;50.304;19.028;2023-03-23T05:01:02;53.54;41.30;73.04;;
77133;Laerm;26708;50.304;19.028;2023-03-23T05:03:12;45.44;41.63;51.88;;
77133;Laerm;26708;50.304;19.028;2023-03-23T05:05:21;47.76;41.54;63.93;;
77133;Laerm;26708;50.304;19.028;2023-03-23T05:07:30;57.70;42.40;70.86;;
77133;Laerm;26708;50.304;19.028;2023-03-23T05:09:35;50.23;41.52;66.52;;
77133;Laerm;26708;50.304;19.028;2023-03-23T05:11:40;50.86;41.85;64.47;;
77133;Laerm;26708;50.304;19.028;2023-03-23T05:13:45;56.22;43.64;69.01;;
77133;Laerm;26708;50.304;19.028;2023-03-23T05:15:50;55.19;43.49;70.46;;
77133;Laerm;26708;50.304;19.028;2023-03-23T05:17:56;50.24;41.80;65.15;;
77133;Laerm;26708;50.304;19.028;2023-03-23T05:20:03;49.97;42.19;64.73;;
77133;Laerm;26708;50.304;19.028;2023-03-23T05:22:18;53.77;43.40;68.64;;
77133;Laerm;26708;50.304;19.028;2023-03-23T05:24:29;54.72;42.30;67.71;;
77133;Laerm;26708;50.304;19.028;2023-03-23T05:26:38;56.73;43.83;70.90;;
77133;Laerm;26708;50.304;19.028;2023-03-23T05:28:51;56.10;45.61;70.08;;
77133;Laerm;26708;50.304;19.028;2023-03-23T05:31:10;55.39;42.95;66.74;;
77133;Laerm;26708;50.304;19.028;2023-03-23T05:33:14;54.83;44.93;66.41;;
77133;Laerm;26708;50.304;19.028;2023-03-23T05:35:30;58.24;42.75;78.32;;
77133;Laerm;26708;50.304;19.028;2023-03-23T05:37:37;55.91;43.58;70.14;;
77133;Laerm;26708;50.304;19.028;2023-03-23T05:39:46;53.35;43.36;66.81;;
77133;Laerm;26708;50.304;19.028;2023-03-23T05:42:11;53.31;44.43;67.34;;
77133;Laerm;26708;50.304;19.028;2023-03-23T05:44:24;55.77;44.20;66.28;;
77133;Laerm;26708;50.304;19.028;2023-03-23T05:46:32;55.80;46.53;68.97;;
77133;Laerm;26708;50.304;19.028;2023-03-23T05:48:37;54.96;43.99;66.13;;
77133;Laerm;26708;50.304;19.028;2023-03-23T05:50:48;52.04;43.92;65.81;;
77133;Laerm;26708;50.304;19.028;2023-03-23T05:52:56;55.61;45.53;69.10;;
77133;Laerm;26708;50.304;19.028;2023-03-23T05:55:07;55.70;44.57;68.49;;
77133;Laerm;26708;50.304;19.028;2023-03-23T05:57:15;56.92;43.77;71.81;;
77133;Laerm;26708;50.304;19.028;2023-03-23T05:59:23;56.91;46.77;69.45;;
77133;Laerm;26708;50.304;19.028;2023-03-23T06:01:31;57.68;44.78;67.52;;
77133;Laerm;26708;50.304;19.028;2023-03-23T06:03:36;56.69;46.76;68.86;;
77133;Laerm;26708;50.304;19.028;2023-03-23T06:05:59;56.75;46.02;70.93;;
77133;Laerm;26708;50.304;19.028;2023-03-23T06:08:15;64.85;48.19;78.59;;
77133;Laerm;26708;50.304;19.028;2023-03-23T06:10:23;65.29;48.26;82.76;;
77133;Laerm;26708;50.304;19.028;2023-03-23T06:12:37;57.66;44.56;68.95;;
77133;Laerm;26708;50.304;19.028;2023-03-23T06:15:08;59.13;44.74;79.63;;
77133;Laerm;26708;50.304;19.028;2023-03-23T06:17:33;56.72;44.39;71.52;;
77133;Laerm;26708;50.304;19.028;2023-03-23T06:19:38;57.85;44.79;69.53;;
77133;Laerm;26708;50.304;19.028;2023-03-23T06:21:47;55.95;44.52;69.53;;
77133;Laerm;26708;50.304;19.028;2023-03-23T06:24:02;55.74;43.30;70.82;;
77133;Laerm;26708;50.304;19.028;2023-03-23T06:26:13;55.74;44.52;69.29;;
77133;Laerm;26708;50.304;19.028;2023-03-23T06:28:25;55.17;43.43;68.16;;
77133;Laerm;26708;50.304;19.028;2023-03-23T06:30:32;57.80;45.62;71.36;;
77133;Laerm;26708;50.304;19.028;2023-03-23T06:32:38;58.94;47.02;71.31;;
77133;Laerm;26708;50.304;19.028;2023-03-23T06:34:46;54.25;43.37;68.58;;
77133;Laerm;26708;50.304;19.028;2023-03-23T06:37:05;51.37;42.57;65.61;;
77133;Laerm;26708;50.304;19.028;2023-03-23T06:39:28;57.33;44.25;67.61;;
77133;Laerm;26708;50.304;19.028;2023-03-23T06:41:57;56.44;44.36;71.53;;
77133;Laerm;26708;50.304;19.028;2023-03-23T06:44:07;59.51;43.29;72.37;;
77133;Laerm;26708;50.304;19.028;2023-03-23T06:46:15;58.85;45.30;74.72;;
77133;Laerm;26708;50.304;19.028;2023-03-23T06:48:28;53.21;44.00;70.29;;
77133;Laerm;26708;50.304;19.028;2023-03-23T06:50:37;58.68;43.17;75.47;;
77133;Laerm;26708;50.304;19.028;2023-03-23T06:52:46;54.11;43.96;68.57;;
77133;Laerm;26708;50.304;19.028;2023-03-23T06:54:53;55.55;44.36;70.24;;
77133;Laerm;26708;50.304;19.028;2023-03-23T06:57:01;56.36;43.69;67.81;;
77133;Laerm;26708;50.304;19.028;2023-03-23T06:59:06;55.61;43.32;68.79;;
77133;Laerm;26708;50.304;19.028;2023-03-23T07:01:11;60.31;44.69;76.69;;
77133;Laerm;26708;50.304;19.028;2023-03-23T07:03:27;57.59;46.80;69.49;;
77133;Laerm;26708;50.304;19.028;2023-03-23T07:05:34;57.46;44.17;69.82;;
77133;Laerm;26708;50.304;19.028;2023-03-23T07:07:41;54.23;43.99;66.59;;
77133;Laerm;26708;50.304;19.028;2023-03-23T07:09:56;53.62;43.81;65.29;;
77133;Laerm;26708;50.304;19.028;2023-03-23T07:12:05;56.17;43.47;72.74;;
77133;Laerm;26708;50.304;19.028;2023-03-23T07:14:15;58.08;44.15;68.48;;
77133;Laerm;26708;50.304;19.028;2023-03-23T07:16:22;55.35;43.11;70.22;;
77133;Laerm;26708;50.304;19.028;2023-03-23T07:18:28;49.58;42.10;63.20;;
77133;Laerm;26708;50.304;19.028;2023-03-23T07:20:34;54.62;42.83;75.49;;
77133;Laerm;26708;50.304;19.028;2023-03-23T07:22:39;56.15;44.44;66.50;;
77133;Laerm;26708;50.304;19.028;2023-03-23T07:24:55;54.69;44.30;69.06;;
77133;Laerm;26708;50.304;19.028;2023-03-23T07:27:08;57.36;43.54;71.00;;
77133;Laerm;26708;50.304;19.028;2023-03-23T07:29:15;49.11;42.84;64.24;;
77133;Laerm;26708;50.304;19.028;2023-03-23T07:31:23;56.40;42.78;68.97;;
77133;Laerm;26708;50.304;19.028;2023-03-23T07:33:29;56.98;43.16;70.43;;
77133;Laerm;26708;50.304;19.028;2023-03-23T07:35:36;58.41;45.02;70.27;;
77133;Laerm;26708;50.304;19.028;2023-03-23T07:37:48;57.22;43.72;73.19;;
77133;Laerm;26708;50.304;19.028;2023-03-23T07:39:53;58.63;44.93;70.80;;
77133;Laerm;26708;50.304;19.028;2023-03-23T07:42:00;54.71;43.47;68.70;;
77133;Laerm;26708;50.304;19.028;2023-03-23T07:44:19;58.42;43.79;73.14;;
77133;Laerm;26708;50.304;19.028;2023-03-23T07:46:26;55.06;43.99;66.78;;
77133;Laerm;26708;50.304;19.028;2023-03-23T07:48:39;53.98;42.03;67.59;;
77133;Laerm;26708;50.304;19.028;2023-03-23T07:50:43;59.61;44.12;73.17;;
77133;Laerm;26708;50.304;19.028;2023-03-23T07:52:49;58.58;45.24;75.38;;
77133;Laerm;26708;50.304;19.028;2023-03-23T07:54:55;56.48;43.00;67.89;;
77133;Laerm;26708;50.304;19.028;2023-03-23T07:57:16;56.53;43.50;69.31;;
77133;Laerm;26708;50.304;19.028;2023-03-23T07:59:29;58.88;43.76;71.92;;
77133;Laerm;26708;50.304;19.028;2023-03-23T08:01:35;57.52;43.72;72.30;;
77133;Laerm;26708;50.304;19.028;2023-03-23T08:03:59;57.47;43.82;68.00;;
77133;Laerm;26708;50.304;19.028;2023-03-23T08:06:19;57.27;44.88;68.83;;
77133;Laerm;26708;50.304;19.028;2023-03-23T08:08:37;58.14;44.68;76.85;;
77133;Laerm;26708;50.304;19.028;2023-03-23T08:11:01;52.80;42.24;67.58;;
77133;Laerm;26708;50.304;19.028;2023-03-23T08:13:26;57.38;44.50;68.57;;
77133;Laerm;26708;50.304;19.028;2023-03-23T08:15:52;54.85;42.17;70.31;;
77133;Laerm;26708;50.304;19.028;2023-03-23T08:18:27;57.12;42.85;70.57;;
77133;Laerm;26708;50.304;19.028;2023-03-23T08:20:51;54.17;43.28;66.78;;
77133;Laerm;26708;50.304;19.028;2023-03-23T08:23:18;53.07;43.43;68.44;;
77133;Laerm;26708;50.304;19.028;2023-03-23T08:25:24;55.40;41.87;66.58;;
77133;Laerm;26708;50.304;19.028;2023-03-23T08:27:48;58.43;45.02;72.21;;
77133;Laerm;26708;50.304;19.028;2023-03-23T08:30:05;55.54;43.12;67.83;;
77133;Laerm;26708;50.304;19.028;2023-03-23T08:32:32;64.25;43.25;88.73;;
77133;Laerm;26708;50.304;19.028;2023-03-23T08:34:50;53.97;44.59;67.07;;
77133;Laerm;26708;50.304;19.028;2023-03-23T08:37:14;57.54;44.15;69.73;;
77133;Laerm;26708;50.304;19.028;2023-03-23T08:39:41;57.19;43.76;67.53;;
77133;Laerm;26708;50.304;19.028;2023-03-23T08:41:46;56.65;42.48;76.10;;
77133;Laerm;26708;50.304;19.028;2023-03-23T08:44:11;57.89;44.34;76.25;;
77133;Laerm;26708;50.304;19.028;2023-03-23T08:46:35;53.34;44.07;63.81;;
77133;Laerm;26708;50.304;19.028;2023-03-23T08:48:46;56.12;44.92;67.02;;
77133;Laerm;26708;50.304;19.028;2023-03-23T08:51:26;57.23;43.27;69.56;;
77133;Laerm;26708;50.304;19.028;2023-03-23T08:53:44;53.42;43.13;64.83;;
77133;Laerm;26708;50.304;19.028;2023-03-23T08:56:16;55.69;42.24;70.79;;
77133;Laerm;26708;50.304;19.028;2023-03-23T08:58:45;56.05;42.53;69.98;;
77133;Laerm;26708;50.304;19.028;2023-03-23T09:01:02;53.93;43.00;69.07;;
77133;Laerm;26708;50.304;19.028;2023-03-23T09:03:19;55.83;43.33;67.86;;
77133;Laerm;26708;50.304;19.028;2023-03-23T09:05:52;66.11;45.41;81.64;;
77133;Laerm;26708;50.304;19.028;2023-03-23T09:08:01;71.03;61.58;91.62;;
77133;Laerm;26708;50.304;19.028;2023-03-23T09:10:08;68.51;44.87;93.46;;
77133;Laerm;26708;50.304;19.028;2023-03-23T09:12:14;53.81;43.93;68.92;;
77133;Laerm;26708;50.304;19.028;2023-03-23T09:14:18;56.14;42.71;68.31;;
77133;Laerm;26708;50.304;19.028;2023-03-23T09:16:23;57.80;44.33;68.82;;
77133;Laerm;26708;50.304;19.028;2023-03-23T09:18:29;55.65;42.74;68.68;;
77133;Laerm;26708;50.304;19.028;2023-03-23T09:20:33;57.37;43.77;71.11;;
77133;Laerm;26708;50.304;19.028;2023-03-23T09:22:45;54.21;43.53;67.13;;
77133;Laerm;26708;50.304;19.028;2023-03-23T09:24:51;55.29;42.86;66.55;;
77133;Laerm;26708;50.304;19.028;2023-03-23T09:26:59;56.91;42.74;71.15;;
77133;Laerm;26708;50.304;19.028;2023-03-23T09:29:05;56.52;46.04;70.65;;
77133;Laerm;26708;50.304;19.028;2023-03-23T09:31:10;57.05;45.88;68.70;;
77133;Laerm;26708;50.304;19.028;2023-03-23T09:33:15;61.76;44.29;80.11;;
77133;Laerm;26708;50.304;19.028;2023-03-23T09:35:20;54.75;43.81;68.81;;
77133;Laerm;26708;50.304;19.028;2023-03-23T09:37:26;51.31;44.97;65.03;;
77133;Laerm;26708;50.304;19.028;2023-03-23T09:39:33;54.41;42.83;64.73;;
77133;Laerm;26708;50.304;19.028;2023-03-23T09:42:02;56.53;44.74;72.67;;
77133;Laerm;26708;50.304;19.028;2023-03-23T09:44:27;55.81;42.23;70.72;;
77133;Laerm;26708;50.304;19.028;2023-03-23T09:46:58;57.04;42.85;74.15;;
77133;Laerm;26708;50.304;19.028;2023-03-23T09:49:12;55.77;43.70;66.58;;
77133;Laerm;26708;50.304;19.028;2023-03-23T09:51:42;54.93;43.50;70.17;;
77133;Laerm;26708;50.304;19.028;2023-03-23T09:53:53;56.74;45.07;68.65;;
77133;Laerm;26708;50.304;19.028;2023-03-23T09:56:01;54.16;43.56;67.17;;
77133;Laerm;26708;50.304;19.028;2023-03-23T09:58:20;55.86;44.56;69.83;;
77133;Laerm;26708;50.304;19.028;2023-03-23T10:00:36;59.40;45.36;71.56;;
77133;Laerm;26708;50.304;19.028;2023-03-23T10:02:49;55.25;44.68;66.36;;
77133;Laerm;26708;50.304;19.028;2023-03-23T10:05:26;58.82;44.19;73.43;;
77133;Laerm;26708;50.304;19.028;2023-03-23T10:07:33;56.42;45.41;68.58;;
77133;Laerm;26708;50.304;19.028;2023-03-23T10:09:38;59.48;47.07;76.39;;
77133;Laerm;26708;50.304;19.028;2023-03-23T10:12:02;57.28;46.25;70.76;;
77133;Laerm;26708;50.304;19.028;2023-03-23T10:14:30;53.73;45.27;64.89;;
77133;Laerm;26708;50.304;19.028;2023-03-23T10:16:49;54.63;45.04;65.88;;
77133;Laerm;26708;50.304;19.028;2023-03-23T10:19:10;58.12;45.80;69.78;;
77133;Laerm;26708;50.304;19.028;2023-03-23T10:21:20;64.19;44.35;79.20;;
77133;Laerm;26708;50.304;19.028;2023-03-23T10:23:54;64.89;44.77;86.47;;
77133;Laerm;26708;50.304;19.028;2023-03-23T10:26:13;54.72;45.34;66.22;;
77133;Laerm;26708;50.304;19.028;2023-03-23T10:28:37;56.50;44.03;75.61;;
77133;Laerm;26708;50.304;19.028;2023-03-23T10:30:48;57.10;44.62;69.38;;
77133;Laerm;26708;50.304;19.028;2023-03-23T10:33:02;51.37;43.81;64.44;;
77133;Laerm;26708;50.304;19.028;2023-03-23T10:35:14;55.55;43.78;66.11;;
77133;Laerm;26708;50.304;19.028;2023-03-23T10:37:27;56.02;44.99;66.44;;
77133;Laerm;26708;50.304;19.028;2023-03-23T10:39:47;57.98;43.37;75.27;;
77133;Laerm;26708;50.304;19.028;2023-03-23T10:41:54;57.60;43.13;69.13;;
77133;Laerm;26708;50.304;19.028;2023-03-23T10:44:18;56.20;44.18;69.29;;
77133;Laerm;26708;50.304;19.028;2023-03-23T10:46:36;58.70;44.90;73.51;;
77133;Laerm;26708;50.304;19.028;2023-03-23T10:48:44;56.88;44.30;69.82;;
77133;Laerm;26708;50.304;19.028;2023-03-23T10:50:56;55.38;44.30;67.19;;
77133;Laerm;26708;50.304;19.028;2023-03-23T10:53:16;57.02;45.48;68.41;;
77133;Laerm;26708;50.304;19.028;2023-03-23T10:55:24;54.94;43.79;66.28;;
77133;Laerm;26708;50.304;19.028;2023-03-23T10:57:32;56.16;44.91;66.98;;
77133;Laerm;26708;50.304;19.028;2023-03-23T10:59:41;57.28;43.52;71.71;;
77133;Laerm;26708;50.304;19.028;2023-03-23T11:01:52;58.84;45.40;70.32;;
77133;Laerm;26708;50.304;19.028;2023-03-23T11:03:58;60.51;45.92;73.67;;
77133;Laerm;26708;50.304;19.028;2023-03-23T11:06:08;50.33;42.45;64.40;;
77133;Laerm;26708;50.304;19.028;2023-03-23T11:08:18;56.35;42.22;68.95;;
77133;Laerm;26708;50.304;19.028;2023-03-23T11:10:26;55.37;43.72;76.36;;
77133;Laerm;26708;50.304;19.028;2023-03-23T11:12:34;55.26;44.74;65.80;;
77133;Laerm;26708;50.304;19.028;2023-03-23T11:14:41;54.34;43.97;72.49;;
77133;Laerm;26708;50.304;19.028;2023-03-23T11:16:53;57.87;44.21;68.68;;
77133;Laerm;26708;50.304;19.028;2023-03-23T11:19:13;54.18;42.14;68.04;;
77133;Laerm;26708;50.304;19.028;2023-03-23T11:21:22;57.12;43.66;68.51;;
77133;Laerm;26708;50.304;19.028;2023-03-23T11:23:33;54.10;42.70;64.97;;
77133;Laerm;26708;50.304;19.028;2023-03-23T11:25:58;56.24;42.97;69.79;;
77133;Laerm;26708;50.304;19.028;2023-03-23T11:28:04;54.80;43.34;68.61;;
77133;Laerm;26708;50.304;19.028;2023-03-23T11:30:23;57.02;44.34;70.19;;
77133;Laerm;26708;50.304;19.028;2023-03-23T11:32:30;56.50;44.16;72.26;;
77133;Laerm;26708;50.304;19.028;2023-03-23T11:34:41;56.45;44.32;72.86;;
77133;Laerm;26708;50.304;19.028;2023-03-23T11:36:55;56.22;42.39;70.73;;
77133;Laerm;26708;50.304;19.028;2023-03-23T11:39:19;56.26;44.07;69.17;;
77133;Laerm;26708;50.304;19.028;2023-03-23T11:41:32;54.86;43.97;66.55;;
77133;Laerm;26708;50.304;19.028;2023-03-23T11:43:44;73.50;56.93;95.49;;
77133;Laerm;26708;50.304;19.028;2023-03-23T11:46:05;56.81;43.90;69.91;;
77133;Laerm;26708;50.304;19.028;2023-03-23T11:48:26;57.60;43.99;74.57;;
77133;Laerm;26708;50.304;19.028;2023-03-23T11:50:39;55.06;45.65;66.47;;
77133;Laerm;26708;50.304;19.028;2023-03-23T11:52:54;55.20;45.37;66.85;;
77133;Laerm;26708;50.304;19.028;2023-03-23T11:55:13;57.15;44.00;71.90;;
77133;Laerm;26708;50.304;19.028;2023-03-23T11:57:19;57.55;42.84;67.66;;
77133;Laerm;26708;50.304;19.028;2023-03-23T11:59:31;56.13;42.91;70.46;;
77133;Laerm;26708;50.304;19.028;2023-03-23T12:01:50;55.89;43.50;71.18;;
77133;Laerm;26708;50.304;19.028;2023-03-23T12:04:20;55.66;43.30;70.29;;
77133;Laerm;26708;50.304;19.028;2023-03-23T12:06:45;56.91;42.25;74.33;;
77133;Laerm;26708;50.304;19.028;2023-03-23T12:09:09;55.87;43.87;66.86;;
77133;Laerm;26708;50.304;19.028;2023-03-23T12:11:28;55.61;44.23;68.25;;
77133;Laerm;26708;50.304;19.028;2023-03-23T12:13:56;57.52;43.65;70.08;;